createdAt,value
2018-06-10T00:01:43.748Z,73.10
2018-06-10T00:04:11.927Z,72.80
2018-06-10T00:06:40.088Z,72.90
2018-06-10T00:09:08.309Z,72.50
2018-06-10T00:11:36.477Z,71.90
2018-06-10T00:14:04.649Z,70.90
2018-06-10T00:16:32.825Z,65.80
2018-06-10T00:19:01.017Z,64.30
2018-06-10T00:21:29.230Z,63.90
2018-06-10T00:23:57.441Z,64.00
2018-06-10T00:26:25.644Z,64.70
2018-06-10T00:28:59.337Z,65.20
2018-06-10T00:31:27.525Z,65.80
2018-06-10T00:33:55.712Z,66.80
2018-06-10T00:36:23.905Z,67.80
2018-06-10T00:38:52.086Z,69.60
2018-06-10T00:41:20.272Z,69.70
2018-06-10T00:43:48.541Z,70.10
2018-06-10T00:46:16.719Z,70.70
2018-06-10T00:48:44.904Z,71.30
2018-06-10T00:51:13.088Z,71.90
2018-06-10T00:53:41.261Z,73.20
2018-06-10T00:56:20.927Z,75.00
2018-06-10T00:58:49.121Z,76.80
2018-06-10T01:01:17.321Z,80.40
2018-06-10T01:03:45.501Z,79.50
2018-06-10T01:06:13.684Z,79.80
2018-06-10T01:08:41.928Z,80.80
2018-06-10T01:11:10.166Z,82.30
2018-06-10T01:13:38.367Z,85.20
2018-06-10T01:16:06.593Z,85.70
2018-06-10T01:18:35.101Z,86.40
2018-06-10T01:21:03.338Z,86.80
2018-06-10T01:23:31.532Z,87.90
2018-06-10T01:25:59.765Z,88.40
2018-06-10T01:28:28.910Z,89.40
2018-06-10T01:30:58.612Z,89.90
2018-06-10T01:33:27.097Z,90.40
2018-06-10T01:35:55.320Z,90.50
2018-06-10T01:38:23.551Z,90.20
2018-06-10T01:40:51.782Z,90.10
2018-06-10T01:43:19.960Z,90.70
2018-06-10T01:45:48.170Z,90.40
2018-06-10T01:48:16.404Z,90.50
2018-06-10T01:50:44.628Z,90.70
2018-06-10T01:53:12.820Z,90.80
2018-06-10T01:55:41.153Z,90.80
2018-06-10T02:19:18.811Z,93.80
2018-06-10T02:21:47.011Z,94.30
2018-06-10T02:24:15.197Z,93.90
2018-06-10T02:26:43.369Z,93.60
2018-06-10T02:29:11.547Z,93.50
2018-06-10T02:31:39.733Z,93.40
2018-06-10T02:34:07.913Z,93.50
2018-06-10T02:36:36.101Z,93.00
2018-06-10T02:39:07.125Z,93.00
2018-06-10T02:41:35.360Z,92.90
2018-06-10T02:44:03.638Z,92.50
2018-06-10T02:46:31.804Z,92.60
2018-06-10T02:49:00.342Z,92.30
2018-06-10T02:51:29.088Z,92.60
2018-06-10T02:53:57.271Z,92.40
2018-06-10T02:56:25.490Z,92.50
2018-06-10T02:58:53.675Z,92.40
2018-06-10T03:01:21.852Z,92.20
2018-06-10T03:03:50.069Z,92.30
2018-06-10T03:06:18.288Z,92.30
2018-06-10T03:08:46.468Z,92.80
2018-06-10T03:11:14.736Z,92.70
2018-06-10T03:13:42.912Z,92.00
2018-06-10T03:16:11.085Z,92.60
2018-06-10T03:18:39.256Z,92.70
2018-06-10T03:21:07.432Z,92.80
2018-06-10T03:23:35.644Z,92.90
2018-06-10T03:26:03.887Z,93.20
2018-06-10T03:28:32.077Z,93.50
2018-06-10T03:31:00.271Z,93.60
2018-06-10T03:33:28.452Z,93.30
2018-06-10T03:35:56.632Z,93.30
2018-06-10T03:38:24.833Z,93.40
2018-06-10T03:40:53.497Z,93.40
2018-06-10T03:43:21.684Z,93.30
2018-06-10T03:45:49.874Z,93.40
2018-06-10T03:48:18.085Z,93.30
2018-06-10T03:50:46.292Z,93.50
2018-06-10T03:53:14.513Z,93.60
2018-06-10T03:55:42.781Z,93.80
2018-06-10T03:58:10.955Z,93.40
2018-06-10T04:00:39.131Z,93.60
2018-06-10T04:03:07.381Z,93.30
2018-06-10T04:05:35.798Z,93.60
2018-06-10T04:08:03.976Z,93.60
2018-06-10T04:10:32.567Z,93.70
2018-06-10T04:13:00.985Z,93.70
2018-06-10T04:15:29.173Z,93.60
2018-06-10T04:17:57.365Z,93.60
2018-06-10T04:20:25.514Z,93.90
2018-06-10T04:22:53.669Z,93.90
2018-06-10T04:25:21.840Z,93.90
2018-06-10T04:27:50.015Z,93.80
2018-06-10T04:30:18.192Z,93.90
2018-06-10T04:32:46.374Z,94.00
2018-06-10T04:39:18.442Z,93.50
2018-06-10T04:41:46.618Z,94.30
2018-06-10T04:44:14.777Z,94.50
2018-06-10T04:46:42.950Z,94.30
2018-06-10T04:49:11.114Z,94.10
2018-06-10T04:54:07.203Z,93.90
2018-06-10T04:56:35.388Z,93.40
2018-06-10T04:59:03.678Z,93.60
2018-06-10T05:01:31.871Z,93.80
2018-06-10T05:04:00.071Z,93.70
2018-06-10T05:06:28.253Z,93.50
2018-06-10T05:08:56.432Z,93.60
2018-06-10T05:11:24.585Z,93.60
2018-06-10T05:13:52.745Z,93.60
2018-06-10T05:16:20.949Z,93.60
2018-06-10T05:18:49.121Z,93.30
2018-06-10T05:21:17.303Z,93.60
2018-06-10T05:23:45.518Z,93.30
2018-06-10T05:26:13.690Z,93.10
2018-06-10T05:28:42.721Z,92.70
2018-06-10T05:31:10.975Z,92.70
2018-06-10T05:33:39.840Z,92.50
2018-06-10T05:36:08.150Z,92.20
2018-06-10T05:38:36.361Z,92.20
2018-06-10T05:41:04.544Z,92.10
2018-06-10T05:43:32.702Z,92.00
2018-06-10T05:46:00.901Z,91.30
2018-06-10T05:48:29.106Z,91.50
2018-06-10T05:50:57.315Z,91.50
2018-06-10T05:53:25.673Z,91.40
2018-06-10T05:55:53.871Z,91.20
2018-06-10T05:58:22.033Z,91.00
2018-06-10T06:00:50.229Z,91.40
2018-06-10T06:03:18.397Z,90.60
2018-06-10T06:05:46.595Z,91.30
2018-06-10T06:08:15.031Z,91.30
2018-06-10T06:10:43.226Z,91.60
2018-06-10T06:13:11.450Z,90.90
2018-06-10T06:15:39.636Z,91.10
2018-06-10T06:18:07.847Z,89.60
2018-06-10T06:20:36.019Z,91.50
2018-06-10T06:23:04.209Z,91.00
2018-06-10T06:25:32.407Z,91.00
2018-06-10T06:28:00.604Z,90.90
2018-06-10T06:30:28.831Z,90.50
2018-06-10T06:32:57.043Z,91.10
2018-06-10T06:35:25.212Z,91.50
2018-06-10T06:37:53.431Z,90.20
2018-06-10T06:40:21.632Z,87.70
2018-06-10T06:42:49.802Z,87.50
2018-06-10T06:45:17.960Z,86.20
2018-06-10T06:47:46.346Z,88.50
2018-06-10T06:50:14.584Z,86.90
2018-06-10T06:52:42.812Z,86.50
2018-06-10T06:55:11.009Z,86.20
2018-06-10T06:57:39.192Z,85.20
2018-06-10T07:00:07.363Z,83.00
2018-06-10T07:02:35.538Z,83.30
2018-06-10T07:05:03.716Z,83.60
2018-06-10T07:07:31.912Z,82.40
2018-06-10T07:10:00.098Z,82.10
2018-06-10T07:12:28.326Z,83.00
2018-06-10T07:14:56.534Z,80.80
2018-06-10T07:17:24.700Z,79.70
2018-06-10T07:19:52.869Z,79.30
2018-06-10T07:22:21.181Z,80.60
2018-06-10T07:24:49.381Z,79.80
2018-06-10T07:27:17.575Z,79.50
2018-06-10T07:29:45.772Z,78.60
2018-06-10T07:32:13.969Z,77.20
2018-06-10T07:34:42.133Z,76.00
2018-06-10T07:37:10.335Z,76.20
2018-06-10T07:39:38.490Z,76.10
2018-06-10T07:42:06.666Z,76.40
2018-06-10T07:44:34.867Z,75.50
2018-06-10T07:47:03.029Z,75.50
2018-06-10T07:49:31.223Z,75.60
2018-06-10T07:51:59.433Z,74.80
2018-06-10T07:54:27.605Z,74.70
2018-06-10T07:56:55.778Z,77.00
2018-06-10T07:59:24.073Z,78.90
2018-06-10T08:01:52.274Z,78.40
2018-06-10T08:04:20.485Z,77.30
2018-06-10T08:06:48.677Z,78.00
2018-06-10T08:09:16.869Z,77.40
2018-06-10T08:11:45.058Z,78.20
2018-06-10T08:14:13.234Z,77.40
2018-06-10T08:16:41.452Z,74.90
2018-06-10T08:19:09.641Z,73.80
2018-06-10T08:21:37.857Z,72.80
2018-06-10T08:24:09.095Z,73.90
2018-06-10T08:26:37.313Z,74.70
2018-06-10T08:29:05.708Z,73.60
2018-06-10T08:31:33.881Z,73.30
2018-06-10T08:34:02.104Z,73.50
2018-06-10T08:36:30.303Z,72.40
2018-06-10T08:38:58.485Z,73.50
2018-06-10T08:41:26.645Z,71.70
2018-06-10T08:43:54.884Z,71.00
2018-06-10T08:46:22.982Z,70.40
2018-06-10T08:48:51.153Z,70.60
2018-06-10T08:51:19.361Z,69.40
2018-06-10T08:53:47.526Z,70.50
2018-06-10T08:56:15.713Z,67.90
2018-06-10T08:58:43.887Z,68.10
2018-06-10T09:01:12.067Z,67.40
2018-06-10T09:03:40.253Z,64.40
2018-06-10T09:06:08.473Z,65.80
2018-06-10T09:08:36.696Z,65.10
2018-06-10T09:11:04.805Z,62.70
2018-06-10T09:16:00.908Z,64.00
2018-06-10T09:18:29.107Z,63.40
2018-06-10T09:20:57.302Z,60.70
2018-06-10T09:23:25.461Z,60.70
2018-06-10T09:25:53.632Z,58.50
2018-06-10T09:28:21.833Z,59.10
2018-06-10T09:30:50.037Z,58.80
2018-06-10T09:33:18.229Z,59.40
2018-06-10T09:35:46.423Z,58.70
2018-06-10T09:38:14.595Z,59.70
2018-06-10T09:40:42.790Z,60.00
2018-06-10T09:43:11.109Z,59.50
2018-06-10T09:45:39.275Z,59.80
2018-06-10T09:48:07.871Z,61.70
2018-06-10T09:50:36.049Z,60.80
2018-06-10T09:53:04.193Z,61.90
2018-06-10T09:55:35.843Z,60.70
2018-06-10T09:58:03.829Z,60.20
2018-06-10T10:00:32.012Z,59.40
2018-06-10T10:03:00.220Z,60.70
2018-06-10T10:05:28.416Z,61.90
2018-06-10T10:07:56.590Z,61.60
2018-06-10T10:10:24.878Z,62.10
2018-06-10T10:12:53.044Z,62.50
2018-06-10T10:15:21.217Z,61.40
2018-06-10T10:17:49.376Z,60.10
2018-06-10T10:20:17.939Z,59.60
2018-06-10T10:22:46.109Z,59.60
2018-06-10T10:25:14.289Z,59.80
2018-06-10T10:27:42.507Z,59.70
2018-06-10T10:30:10.691Z,58.20
2018-06-10T10:32:38.873Z,56.00
2018-06-10T10:35:07.085Z,55.70
2018-06-10T10:37:35.267Z,53.90
2018-06-10T10:40:03.464Z,53.80
2018-06-10T10:42:31.657Z,54.90
2018-06-10T10:44:59.817Z,54.90
2018-06-10T10:47:27.978Z,54.60
2018-06-10T10:49:56.125Z,53.30
2018-06-10T10:52:24.302Z,54.00
2018-06-10T10:54:52.489Z,53.50
2018-06-10T10:57:20.707Z,52.40
2018-06-10T10:59:48.899Z,51.60
2018-06-10T11:02:17.033Z,50.70
2018-06-10T11:04:45.207Z,49.80
2018-06-10T11:07:13.364Z,48.60
2018-06-10T11:09:41.559Z,49.70
2018-06-10T11:12:09.742Z,50.30
2018-06-10T11:14:37.915Z,51.90
2018-06-10T11:17:06.082Z,52.20
2018-06-10T11:19:34.877Z,52.70
2018-06-10T11:22:03.057Z,53.60
2018-06-10T11:24:31.241Z,54.90
2018-06-10T11:26:59.995Z,54.20
2018-06-10T11:29:28.145Z,56.00
2018-06-10T11:31:56.317Z,53.20
2018-06-10T11:34:24.537Z,53.10
2018-06-10T11:36:52.700Z,51.10
2018-06-10T11:39:20.865Z,51.90
2018-06-10T11:41:49.054Z,50.00
2018-06-10T11:44:17.209Z,49.40
2018-06-10T11:46:45.366Z,49.20
2018-06-10T11:49:13.637Z,47.90
2018-06-10T11:51:41.813Z,48.70
2018-06-10T11:54:09.997Z,46.90
2018-06-10T11:56:38.283Z,46.90
2018-06-10T11:59:06.459Z,47.70
2018-06-10T12:01:34.622Z,48.50
2018-06-10T12:04:02.853Z,48.00
2018-06-10T12:06:30.996Z,49.20
2018-06-10T12:08:59.179Z,49.60
2018-06-10T12:11:27.372Z,49.20
2018-06-10T12:13:55.560Z,48.40
2018-06-10T12:16:23.724Z,47.70
2018-06-10T12:18:51.900Z,47.90
2018-06-10T12:21:20.053Z,48.00
2018-06-10T12:23:48.229Z,48.70
2018-06-10T12:26:16.410Z,47.60
2018-06-10T12:28:44.585Z,47.90
2018-06-10T12:31:12.767Z,48.00
2018-06-10T12:33:40.995Z,48.60
2018-06-10T12:36:09.182Z,48.70
2018-06-10T12:38:37.337Z,49.00
2018-06-10T12:41:05.525Z,49.20
2018-06-10T12:43:33.684Z,49.80
2018-06-10T12:46:01.859Z,50.10
2018-06-10T12:48:30.037Z,49.90
2018-06-10T12:50:58.196Z,48.50
2018-06-10T12:53:26.378Z,49.30
2018-06-10T12:55:54.552Z,48.50
2018-06-10T12:58:22.710Z,49.20
2018-06-10T13:00:50.887Z,48.10
2018-06-10T13:03:19.058Z,48.10
2018-06-10T13:05:47.220Z,47.50
2018-06-10T13:08:15.372Z,46.60
2018-06-10T13:10:43.598Z,47.00
2018-06-10T13:13:11.746Z,46.20
2018-06-10T13:15:39.921Z,47.50
2018-06-10T13:18:08.100Z,47.40
2018-06-10T13:20:36.260Z,47.40
2018-06-10T13:23:04.422Z,47.70
2018-06-10T13:25:32.616Z,47.30
2018-06-10T13:28:00.785Z,48.10
2018-06-10T13:30:28.965Z,49.20
2018-06-10T13:32:57.153Z,49.70
2018-06-10T13:35:25.293Z,49.70
2018-06-10T13:37:53.465Z,49.10
2018-06-10T13:40:21.648Z,48.30
2018-06-10T13:42:49.829Z,49.20
2018-06-10T13:45:18.011Z,49.00
2018-06-10T13:47:46.172Z,50.20
2018-06-10T13:50:14.331Z,50.30
2018-06-10T13:52:42.548Z,50.40
2018-06-10T13:55:10.745Z,50.30
2018-06-10T13:57:38.905Z,49.70
2018-06-10T14:00:07.099Z,50.60
2018-06-10T14:02:35.286Z,51.00
2018-06-10T14:05:03.484Z,51.00
2018-06-10T14:07:31.657Z,51.30
2018-06-10T14:09:59.874Z,50.90
2018-06-10T14:12:28.064Z,51.10
2018-06-10T14:14:56.247Z,50.30
2018-06-10T14:17:24.416Z,50.50
2018-06-10T14:19:52.598Z,50.80
2018-06-10T14:22:20.784Z,50.50
2018-06-10T14:24:49.089Z,49.40
2018-06-10T14:27:17.239Z,49.70
2018-06-10T14:29:45.415Z,50.40
2018-06-10T14:32:13.631Z,48.40
2018-06-10T14:34:41.787Z,49.30
2018-06-10T14:37:09.972Z,49.90
2018-06-10T14:39:38.214Z,50.10
2018-06-10T14:42:06.466Z,49.50
2018-06-10T14:44:34.647Z,49.90
2018-06-10T14:47:02.829Z,50.30
2018-06-10T14:49:30.991Z,50.60
2018-06-10T14:51:59.179Z,49.90
2018-06-10T14:54:27.366Z,49.30
2018-06-10T14:56:55.546Z,50.20
2018-06-10T14:59:23.728Z,50.20
2018-06-10T15:01:51.925Z,50.40
2018-06-10T15:04:20.090Z,50.20
2018-06-10T15:06:48.277Z,50.20
2018-06-10T15:09:16.457Z,51.30
2018-06-10T15:14:12.584Z,50.40
2018-06-10T15:16:40.778Z,50.90
2018-06-10T15:19:08.940Z,50.20
2018-06-10T15:21:37.127Z,50.70
2018-06-10T15:24:05.355Z,50.50
2018-06-10T15:26:33.528Z,50.80
2018-06-10T15:29:01.711Z,50.70
2018-06-10T15:31:29.917Z,50.30
2018-06-10T15:33:58.084Z,50.00
2018-06-10T15:36:26.233Z,51.30
2018-06-10T15:38:54.400Z,50.30
2018-06-10T15:41:22.576Z,51.10
2018-06-10T15:43:50.745Z,51.40
2018-06-10T15:48:46.864Z,50.90
2018-06-10T15:51:15.025Z,50.60
2018-06-10T15:53:43.212Z,50.90
2018-06-10T15:56:11.381Z,50.90
2018-06-10T15:58:39.598Z,51.50
2018-06-10T16:01:07.823Z,51.10
2018-06-10T16:03:35.980Z,50.90
2018-06-10T16:06:05.242Z,51.20
2018-06-10T16:08:33.416Z,51.20
2018-06-10T16:11:01.769Z,51.90
2018-06-10T16:13:29.968Z,52.60
2018-06-10T16:15:58.174Z,51.70
2018-06-10T16:18:26.344Z,51.40
2018-06-10T16:20:54.517Z,51.90
2018-06-10T16:23:22.723Z,52.10
2018-06-10T16:25:50.880Z,53.00
2018-06-10T16:28:19.050Z,52.40
2018-06-10T16:30:47.269Z,52.60
2018-06-10T16:33:15.460Z,52.60
2018-06-10T16:35:43.643Z,53.10
2018-06-10T16:38:11.847Z,53.80
2018-06-10T16:40:39.977Z,53.80
2018-06-10T16:43:08.140Z,54.20
2018-06-10T16:45:36.336Z,53.00
2018-06-10T16:48:04.528Z,53.40
2018-06-10T16:50:32.698Z,53.90
2018-06-10T16:53:00.935Z,54.40
2018-06-10T16:55:29.149Z,54.20
2018-06-10T16:57:57.302Z,54.00
2018-06-10T17:00:25.481Z,54.50
2018-06-10T17:02:53.684Z,55.00
2018-06-10T17:05:21.877Z,54.70
2018-06-10T17:07:50.026Z,54.70
2018-06-10T17:10:18.216Z,54.90
2018-06-10T17:12:46.409Z,55.20
2018-06-10T17:15:14.576Z,55.60
2018-06-10T17:17:43.113Z,55.50
2018-06-10T17:20:11.253Z,56.20
2018-06-10T17:22:39.533Z,56.20
2018-06-10T17:25:07.700Z,56.30
2018-06-10T17:27:35.866Z,56.50
2018-06-10T17:30:04.704Z,56.60
2018-06-10T17:32:32.908Z,56.70
2018-06-10T17:35:01.102Z,56.00
2018-06-10T17:37:29.308Z,56.30
2018-06-10T17:39:57.524Z,56.50
2018-06-10T17:42:25.779Z,57.50
2018-06-10T17:44:53.948Z,58.40
2018-06-10T17:47:22.137Z,59.00
2018-06-10T17:49:50.318Z,59.20
2018-06-10T17:52:18.539Z,59.30
2018-06-10T17:54:46.697Z,59.50
2018-06-10T17:57:14.878Z,59.40
2018-06-10T17:59:43.082Z,59.90
2018-06-10T18:02:11.268Z,59.70
2018-06-10T18:04:39.450Z,60.20
2018-06-10T18:07:07.656Z,61.00
2018-06-10T18:09:35.828Z,61.10
2018-06-10T18:12:03.743Z,61.50
2018-06-10T18:14:32.099Z,61.60
2018-06-10T18:17:00.258Z,62.10
2018-06-10T18:19:28.420Z,61.50
2018-06-10T18:21:56.717Z,62.30
2018-06-10T18:24:24.881Z,62.70
2018-06-10T18:26:53.065Z,62.80
2018-06-10T18:29:21.232Z,63.30
2018-06-10T18:31:49.441Z,64.20
2018-06-10T18:34:17.584Z,64.50
2018-06-10T18:36:46.240Z,64.30
2018-06-10T18:41:42.380Z,64.20
2018-06-10T18:44:10.606Z,65.90
2018-06-10T18:46:38.807Z,64.00
2018-06-10T18:49:07.076Z,63.60
2018-06-10T18:51:35.310Z,63.60
2018-06-10T18:54:03.517Z,63.50
2018-06-10T18:56:31.705Z,63.50
2018-06-10T18:58:59.870Z,64.10
2018-06-10T19:01:28.059Z,64.60
2018-06-10T19:03:56.267Z,64.80
2018-06-10T19:06:24.494Z,65.50
2018-06-10T19:08:52.670Z,66.80
2018-06-10T19:11:21.129Z,66.00
2018-06-10T19:13:49.529Z,66.10
2018-06-10T19:16:17.724Z,66.70
2018-06-10T19:18:45.969Z,66.80
2018-06-10T19:21:14.699Z,67.00
2018-06-10T19:23:42.833Z,67.20
2018-06-10T19:26:11.030Z,67.50
2018-06-10T19:28:39.242Z,67.90
2018-06-10T19:31:07.432Z,68.20
2018-06-10T19:33:35.608Z,68.70
2018-06-10T19:36:03.827Z,68.90
2018-06-10T19:38:32.021Z,69.30
2018-06-10T19:41:00.451Z,69.30
2018-06-10T19:43:28.639Z,69.50
2018-06-10T19:45:56.864Z,69.80
2018-06-10T19:48:25.018Z,69.40
2018-06-10T19:50:53.186Z,69.60
2018-06-10T19:53:21.417Z,69.90
2018-06-10T19:55:52.104Z,70.40
2018-06-10T19:58:20.285Z,70.70
2018-06-10T20:00:48.563Z,70.80
2018-06-10T20:03:16.784Z,71.00
2018-06-10T20:05:45.026Z,71.30
2018-06-10T20:08:15.355Z,71.70
2018-06-10T20:10:43.812Z,72.10
2018-06-10T20:13:12.043Z,72.30
2018-06-10T20:15:40.338Z,72.60
2018-06-10T20:20:36.481Z,73.20
2018-06-10T20:23:04.681Z,73.60
2018-06-10T20:25:32.869Z,73.90
2018-06-10T20:28:01.062Z,74.30
2018-06-10T20:30:29.670Z,74.80
2018-06-10T20:32:58.829Z,75.30
2018-06-10T20:35:27.033Z,75.90
2018-06-10T20:37:55.217Z,76.00
2018-06-10T20:40:23.437Z,77.40
2018-06-10T20:42:51.612Z,77.00
2018-06-10T20:45:20.108Z,77.50
2018-06-10T20:47:48.334Z,77.70
2018-06-10T20:50:16.522Z,77.90
2018-06-10T20:52:44.700Z,78.10
2018-06-10T20:55:12.912Z,78.20
2018-06-10T20:57:41.128Z,78.60
2018-06-10T21:00:09.308Z,78.90
2018-06-10T21:02:37.524Z,79.00
2018-06-10T21:05:05.970Z,79.30
2018-06-10T21:07:34.145Z,79.80
2018-06-10T21:10:03.077Z,80.00
2018-06-10T21:12:31.348Z,80.10
2018-06-10T21:14:59.496Z,80.30
2018-06-10T21:17:27.684Z,80.30
2018-06-10T21:19:55.922Z,80.40
2018-06-10T21:22:24.364Z,80.70
2018-06-10T21:24:52.583Z,81.10
2018-06-10T21:27:20.800Z,81.20
2018-06-10T21:29:49.087Z,81.40
2018-06-10T21:32:17.400Z,81.70
2018-06-10T21:34:45.653Z,81.70
2018-06-10T21:39:41.902Z,82.10
2018-06-10T21:42:10.131Z,82.50
2018-06-10T21:44:38.645Z,82.50
2018-06-10T21:47:06.866Z,82.10
2018-06-10T21:49:35.050Z,82.40
2018-06-10T21:52:03.497Z,82.40
2018-06-10T21:54:31.687Z,82.50
2018-06-10T21:56:59.873Z,82.90
2018-06-10T21:59:28.044Z,83.20
2018-06-10T22:01:56.208Z,83.40
2018-06-10T22:04:24.418Z,83.50
2018-06-10T22:06:52.559Z,83.60
2018-06-10T22:09:20.760Z,83.70
2018-06-10T22:14:17.171Z,84.00
2018-06-10T22:16:45.397Z,83.90
2018-06-10T22:19:13.566Z,83.90
2018-06-10T22:21:41.717Z,83.70
2018-06-10T22:24:09.916Z,84.00
2018-06-10T22:26:38.113Z,84.30
2018-06-10T22:29:06.328Z,84.70
2018-06-10T22:31:34.553Z,84.70
2018-06-10T22:34:02.729Z,84.50
2018-06-10T22:36:31.146Z,84.30
2018-06-10T22:38:59.333Z,84.50
2018-06-10T22:41:27.735Z,84.70
2018-06-10T22:43:56.150Z,84.70
2018-06-10T22:46:24.348Z,84.70
2018-06-10T22:48:52.507Z,84.90
2018-06-10T22:51:20.688Z,85.20
2018-06-10T22:54:08.886Z,85.40
2018-06-10T22:56:37.301Z,85.10
2018-06-10T22:59:05.761Z,85.50
2018-06-10T23:01:33.943Z,85.50
2018-06-10T23:04:02.101Z,85.80
2018-06-10T23:06:30.349Z,85.90
2018-06-10T23:08:58.548Z,85.90
2018-06-10T23:11:26.726Z,85.90
2018-06-10T23:13:55.193Z,86.20
2018-06-10T23:16:23.417Z,86.30
2018-06-10T23:18:51.630Z,86.30
2018-06-10T23:21:19.835Z,86.10
2018-06-10T23:23:48.033Z,86.20
2018-06-10T23:28:44.810Z,86.30
2018-06-10T23:31:13.012Z,86.40
2018-06-10T23:33:41.197Z,86.30
2018-06-10T23:36:09.380Z,86.00
2018-06-10T23:38:37.595Z,86.00
2018-06-10T23:41:05.787Z,85.90
2018-06-10T23:43:34.497Z,86.80
2018-06-10T23:46:02.882Z,85.90
2018-06-10T23:48:31.114Z,85.70
2018-06-10T23:50:59.276Z,86.00
2018-06-10T23:53:27.514Z,86.00
2018-06-10T23:55:55.733Z,86.10
2018-06-10T23:58:23.917Z,86.00
